KPLR/PLR METAR and TAF weather

Enter ICAO airport designator
Station Type Date Time Source
KPLR METAR 2020/01/23 15:15 UTC NOAA

KPLR 231515Z AUTO 05004KT 5SM BR OVC019 04/04 A3022 RMK A01


Station Type Date Time Source
KPLR Decoded METAR 2020/01/23 15:15 UTC NOAA

Station name not available
Jan 23, 2020 - 10:15 AM EST / 2020.01.23 1515 UTC
Wind: from the NE (050 degrees) at 5 MPH (4 KT):0
Visibility: 5 mile(s):0
Sky conditions: overcast
Weather: mist
Temperature: 39 F (4 C)
Dew Point: 39 F (4 C)
Relative Humidity: 100%
Pressure (altimeter): 30.22 in. Hg (1023 hPa)
ob: KPLR 231515Z AUTO 05004KT 5SM BR OVC019 04/04 A3022 RMK A01
cycle: 15

Station Type Date Time Source
KPLR TAF UTC NOAA

Error!

Example: see airport list